Les résultats vous sont offerts par

Télécharger en pdf

 

Trail de la Côte Châtillonnaise - Barbe bleue 8 km

31/03/2019 - Massingy

124 classés sur 128 inscrits

 

 

Place Nom Prénom Dossard Temps Ecart/1ier Catégorie Sexe Club
1  RAILLARD  TANGUY 422 00:36:58   CA M  ECRA CHATILLONNAIS
2  DELLEMBURGER  DANIEL 371 00:39:23 + 00:02:25 JU M  
3  OLLIN  JOSHUA 411 00:42:20 + 00:05:22 CA M  UCCF
4  LOUIS TISSERAND  THOMAS 394 00:43:35 + 00:06:37 CA M  
5  BARRAUT  RUDY 461 00:44:04 + 00:07:06 M1 M  
6  BONNARD  GEOFFREY 457 00:44:22 + 00:07:24 SE M  SEMUR ATHLE
7  MOYOT  FLORENT 442 00:44:33 + 00:07:35 SE M  
8  OLLIN  NATHAN 412 00:44:49 + 00:07:51 JU M  UCCF
9  MANGIN  CHRISTIAN 471 00:45:15 + 00:08:17 M1 M  ECRAC
10  VIARD  BAPTISTE 435 00:45:51 + 00:08:53 CA M  TROYES OMNISPORTS
11  MOROT  NICOLAS 474 00:46:29 + 00:09:31 SE M  
12  TRIADOU  LUDOVIC 472 00:47:03 + 00:10:05 SE M  CYCLISME
13  NAUDINOT  LOIC 408 00:48:02 + 00:11:04 M1 M  
14  PERNIN  THOMAS 416 00:48:13 + 00:11:15 SE M  
15  JANET  THOMAS 389 00:48:40 + 00:11:42 CA M  
16  BONNARD  MATHIEU 360 00:48:46 + 00:11:48 SE M  
17  CHEVEAU  BENJAMIN 368 00:48:55 + 00:11:57 SE M  
18  CALVO  ANTHONY 366 00:49:00 + 00:12:02 SE M  
19  DOSSO  LUDOVIC 377 00:49:13 + 00:12:15 M1 M  FOULEE CHATILLONNAISE
20  CHOPARD  OLIVIER 369 00:49:20 + 00:12:22 M2 M  
21  PONCET  ARNAUD 437 00:49:41 + 00:12:43 M1 M  LES RUNNERS DES MOULINS
22  GIBIER  VIRGINIE 386 00:50:41 + 00:13:43 SE F  ALLIANCE FORM LE CLUB
23  DEMASSEY  LIONEL 373 00:51:00 + 00:14:02 M2 M  
24  OLLIN  ALEXANDRE 410 00:51:39 + 00:14:41 ES M  
25  VIEL  FLORENT 459 00:51:45 + 00:14:47 M1 M  
26  DESFOSSE  THIERRY 466 00:51:48 + 00:14:50 M2 M  
27  BUNEL  THEO 365 00:51:54 + 00:14:56 CA M  ECRA CHATILLONNAIS
28  KLINGER  LOUIS 390 00:52:26 + 00:15:28 ES M  
29  LECHENAULT  FLORIS 473 00:52:29 + 00:15:31 CA M  SC VITTELIEN
30  FLEURY  DOMINIQUE 379 00:52:44 + 00:15:46 M2 M  SEMUR ATHLETISME AVENTURE
31  BECARD  JACQUES 356 00:53:23 + 00:16:25 M1 M  
32  OLLIVIER  SANDRA 452 00:53:43 + 00:16:45 M1 F  SEMUR ATHLE
33  PLOFFOIN  LUCRECE 418 00:54:05 + 00:17:07 SE F  
34  MARECHAL  PIERRE 455 00:54:08 + 00:17:10 SE M  
35  THOUVENOT  MATHIEU 444 00:54:18 + 00:17:20 SE M  AJPC
36  DEMASSEY  JULIE 372 00:54:34 + 00:17:36 ES F  
37  ANDREE  FREDERIQUE 354 00:55:06 + 00:18:08 M1 M  
38  MATEU  LOIC 456 00:55:15 + 00:18:17 JU M  
39  RAILLARD  AXEL 462 00:55:17 + 00:18:19 JU M  
40  COMPAROT  CHARLINE 453 00:55:18 + 00:18:20 SE F  
41  BILLOTTE  STEPHANE 359 00:56:51 + 00:19:53 M1 M  LES RUNNERS DU MOULIN
42  BOUTIN  EMMANUEL 441 00:56:53 + 00:19:55 SE M  
43  DOSSO  VALENTIN 450 00:56:53 + 00:19:55 ES M  
44  MAZUREK  CHRISTELLE 405 00:57:39 + 00:20:41 M1 F  
45  BUIRETTE  FABRICE 364 00:57:40 + 00:20:42 M2 M  
46  GENTY  MAXIME 385 00:58:26 + 00:21:28 JU M  
47  FOURNET  ANNE 380 00:58:53 + 00:21:55 SE F  
48  LAZZARONI  JEAN CHRISTOPHE 391 00:59:09 + 00:22:11 M2 M  
49  GOUIFFES  PHILIPPE 387 00:59:21 + 00:22:23 M1 M  
50  SZAWROWSKI  ANTOINE 464 00:59:37 + 00:22:39 SE M  
51  RATTON  CATHERINE 423 01:00:06 + 00:23:08 M1 F  
52  MAHMOUDI  MUSTAPHA 397 01:00:08 + 00:23:10 SE M  
53  PHILIPS  CAMILLE 417 01:00:29 + 00:23:31 JU F  ECRA CHATILLONNAIS
54  TUPIN  LAURENT 429 01:00:43 + 00:23:45 M1 M  LES RUNNERS DU MOULIN
55  CHEVALLIER  FREDDY 367 01:00:44 + 00:23:46 M1 M  LES RUNNERS DU MOULIN
56  THEVENIN  NICOLAS 439 01:01:05 + 00:24:07 SE M  
57  MATEU  PIERRE 458 01:01:27 + 00:24:29 ES M  
58  BRIGAND  JEREMIE 362 01:01:43 + 00:24:45 SE M  
59  NESME  KEVIN 409 01:01:44 + 00:24:46 SE M  
60  MARKUS  LIONEL 402 01:01:48 + 00:24:50 SE M  
61  MATAGNE  VERONIQUE 403 01:01:51 + 00:24:53 M2 F  
62  PREVOT  DYLAN 420 01:01:54 + 00:24:56 CA M  ECRA CHATILLONNAIS
63  LETOT  PIERRE 449 01:02:06 + 00:25:08 JU M  
64  VERSTRAETE  AURORE 434 01:02:32 + 00:25:34 SE F  A.S. TONNERROISE OMNISPORT SECTION ATHLETISME
65  COZ  PAUL 395 01:02:35 + 00:25:37 JU M  
66  DESCOMBES  FABRICE 374 01:02:40 + 00:25:42 M2 M  
67  POINSOT  EMILIE 419 01:02:42 + 00:25:44 SE F  TROYES OMNISPORTS
68  BOURGEOIS  FRANCK 361 01:03:11 + 00:26:13 M2 M  FOULEE CHATILLONNAISE
69  LOPEZ  MELINDA 393 01:03:12 + 00:26:14 SE F  
70  OLLIN  STEPHANIE 413 01:03:25 + 00:26:27 M1 F  
71  GARIMA  LUC 383 01:04:19 + 00:27:21 M1 M  UNION SPORTIVE CHEMINOTE DE VENAREY LES LAUMES ATH
72  RACHEDI  HALIM 232 01:04:56 + 00:27:58 M1 M  
73  ROUGET  AURELIE 465 01:05:28 + 00:28:30 SE F  
74  MAIRE  MICHELE 398 01:06:10 + 00:29:12 M3 F  FOULEE CHATILLONNAISE
75  BERTHENET  JEAN MARIE 357 01:06:19 + 00:29:21 M3 M  FOULEE CHATILLONNAISE
76  JEANNEY  JEROME 438 01:06:32 + 00:29:34 M1 M  
77  VARIOT  ISABELLE 432 01:06:50 + 00:29:52 M1 F  
78  DAUTEL  MARIE 370 01:07:49 + 00:30:51 SE F  
79  DESTIPS  ANNE MARIE 467 01:07:54 + 00:30:56 M1 F  
80  MAURY  VALERIE 404 01:07:59 + 00:31:01 M1 F  ATHLETIC RIBOCORTIN SAVINIEN
81  PERCEBOIS  MARIE CHRISTINE 415 01:08:00 + 00:31:02 M2 F  ATHLETIC RIBOCORTIN SAVINIEN
82  MALGRAS  NADEGE 399 01:08:03 + 00:31:05 M1 F  
83  REMY  AXELLE 424 01:08:10 + 00:31:12 SE F  
84  BOURRICARD  PAULINE 475 01:08:14 + 00:31:16 SE F  
85  HUGEROT  AMANDINE 463 01:08:38 + 00:31:40 SE F  
86  LUCAS  FRANCOIS 396 01:09:30 + 00:32:32 SE M  
87  CUENOT  LAURA 477 01:09:30 + 00:32:32 SE F  AJPC
88  VALLAZ  YVES 430 01:09:32 + 00:32:34 M3 M  FOULEE CHATILLONNAISE
89  BIERNE  VERONIQUE 358 01:09:38 + 00:32:40 M1 F  
90  BEAUDIER  CHRISTOPHE 470 01:10:46 + 00:33:48 SE M  
91  PONCET  LUCRECE 448 01:10:51 + 00:33:53 M1 F  
92  VAN DEN BROECKE  ORIANE 431 01:11:13 + 00:34:15 SE F  
93  CHANET  ELODIE 476 01:11:15 + 00:34:17 SE F  
94  MANCINI  NICOLAS 400 01:12:20 + 00:35:22 SE M  
95  LEDOUX  GABRIELLE 446 01:12:47 + 00:35:49 M3 F  
96  CHARTON  VICTOR 451 01:12:53 + 00:35:55 SE M  
97  MOINE  MANON 407 01:12:53 + 00:35:55 JU F  
98  SAINT ETIENNE  ELODIE 460 01:13:15 + 00:36:17 SE F  
99  GENTY  JUSTINE 384 01:13:16 + 00:36:18 SE F  
100  VERSLYPE  DELPHINE 433 01:13:19 + 00:36:21 SE F  
101  FAUCHEREAU  ANNABELLE 378 01:15:40 + 00:38:42 SE F  LES RUNNERS DU MOULIN
102  RONDEAU  CELINE 427 01:16:00 + 00:39:02 SE F  
103  PASTORET  ISALINE 469 01:16:30 + 00:39:32 SE F  
104  BONGARD  BAPTISTE 468 01:16:32 + 00:39:34 SE M  
105  ADAM  ORLANE 352 01:16:46 + 00:39:48 SE F  
106  VIARD  SARAH 436 01:17:22 + 00:40:24 M1 F  ATHLETIC RIBOCORTIN SAVINIEN
107  DESHOUWES  SYLVIE 443 01:17:24 + 00:40:26 M2 F  CABB
108  MOINE  FLORENCE 406 01:17:59 + 00:41:01 M1 F  
109  ALBERT  AMANDINE 353 01:18:36 + 00:41:38 SE F  
110  ADELINE  JULIE 454 01:18:59 + 00:42:01 SE F  
111  THIERRY  CAMILLE 440 01:21:10 + 00:44:12 SE F  
112  LE METAYER  EMILIE 445 01:21:35 + 00:44:37 SE F  AJPC
113  FOURNIER  AURELIE 381 01:21:57 + 00:44:59 SE F  
114  BUFFET  NATHALIE 363 01:22:37 + 00:45:39 SE F  
115  PROU  JEAN YVES 421 01:22:59 + 00:46:01 M3 M  FOULEE CHATILLONNAISE
116  GUEUGNON  VIRGINIE 388 01:23:51 + 00:46:53 M1 F  
117  MARIN  LOUISE 401 01:23:51 + 00:46:53 SE F  
118  LO  SYLVIE 392 01:24:17 + 00:47:19 SE F  
119  ROMANO  KARINE 426 01:24:20 + 00:47:22 M1 F  
120  DO CAMPO  ELISABETE 376 01:24:38 + 00:47:40 M1 F  
121  DE ALMEIDA  ISABEL 447 01:27:00 + 00:50:02 M2 F  
122  SANTILLY  MAGALI 428 01:31:49 + 00:54:51 M1 F  JOGGING CLUB DRYAT
123  ANTIL  KARINE 355 01:31:50 + 00:54:52 M1 F  
124  RICHARD GRAS  FABIENNE 425 01:35:22 + 00:58:24 M2 F  FOULEE CHATILLONNAISE

 

 

Les résultats vous sont offerts par

Télécharger en pdf

 

 

 

 

 

 

 

 

 

 

 

 

 

 

 

 

 

 

 

 

 

 

 

chronometrage,chronométrage, sportif, chrono, course, course à pied, trail, trails, couse nature, puce, U-DAG, loto